• Join FlightAware (Why Join?)
  • Login
  • US Flag 
04:13PM EDT


 

Airport Tracker/Info


-or-


 

Live Flight TrackerFlight Track Log ✈ SWA2068 ✈ 01-Nov-2013 ✈ KDAL - KSAT

Flight Track Log - Related Links

Times and Time Zones

All times are in EDT time to prevent confusion due to time zone crossing. See the SWA2068 flight status page for this flight to view local times or setup timezone preferences in your user account.

Time Position Orientation Groundspeed Altitude Reporting Facility
EDT Latitude Longitude Course Direction KTS MPH feet Rate Location/Type
07:51PM 32.8667 -96.8667 320° Northwest 144 166 1,700  Level Dallas / Fort Worth TRACON
07:51PM 32.8833 -96.8833 320° Northwest 196 226 2,500 2,700 Climbing Dallas / Fort Worth TRACON
07:53PM 32.8786 -97.0275 268° West 206 237 8,900 2,580 Climbing Fort Worth Center
07:54PM 32.7931 -97.0478 191° South 232 267 10,700 1,800 Climbing Fort Worth Center
07:55PM 32.6889 -97.0531 182° South 310 357 12,500 2,460 Climbing Fort Worth Center
07:56PM 32.5761 -97.0533 180° South 380 437 15,700 2,760 Climbing Fort Worth Center
07:57PM 32.4633 -97.0564 181° South 408 470 18,100 2,160 Climbing Fort Worth Center
07:58PM 32.3444 -97.0592 181° South 421 484 20,100 1,680 Climbing Fort Worth Center
07:59PM 32.2506 -97.0622 182° South 421 484 21,500 1,560 Climbing Fort Worth Center
08:00PM 32.1169 -97.0675 182° South 426 490 23,300 1,500 Climbing Fort Worth Center
08:01PM 31.9917 -97.0706 181° South 437 503 24,500 1,380 Climbing Fort Worth Center
08:03PM 31.7594 -97.0756 181° South 472 543 27,100 1,380 Climbing Houston Center
08:04PM 31.6272 -97.0789 181° South 470 541 28,400 1,380 Climbing Houston Center
08:05PM 31.4969 -97.0928 185° South 467 537 30,000 720 Climbing Houston Center
08:06PM 31.3797 -97.1419 200° South 445 512 30,000  Level Houston Center
08:07PM 31.2614 -97.1883 199° South 445 512 30,000  Level Houston Center
08:08PM 31.1219 -97.2442 199° South 448 516 30,000  Level Houston Center
08:09PM 31.0019 -97.2917 199° South 453 521 30,000 -60 Level Houston Center
08:10PM 30.8756 -97.3392 198° South 461 531 29,900  Descending Houston Center
08:11PM 30.7594 -97.3833 198° South 468 539 30,000  Climbing Houston Center
08:12PM 30.6167 -97.4392 199° South 461 531 30,000 -120 Level Houston Center
08:13PM 30.4936 -97.4869 198° South 462 532 29,800 -1,440 Descending Houston Center
08:14PM 30.3747 -97.5322 198° South 451 519 27,100 -3,060 Descending Houston Center
08:15PM 30.2725 -97.6025 211° Southwest 424 488 23,500 -3,180 Descending Houston Center
08:16PM 30.1711 -97.6753 212° Southwest 423 487 20,600 -2,880 Descending Houston Center
08:17PM 30.0761 -97.7400 211° Southwest 388 447 17,800 -2,940 Descending Houston Center
08:17PM 30.0681 -97.7442 204° Southwest 391 450 17,600 -2,640 Descending Houston Center
08:18PM 29.9803 -97.8053 211° Southwest 371 427 15,000 -2,460 Descending Houston Center
08:19PM 29.9617 -97.8175 210° Southwest 360 414 14,500 -1,980 Descending Houston Center
08:19PM 29.8931 -97.8694 213° Southwest 349 402 13,000 -1,500 Descending Houston Center
08:20PM 29.8883 -97.8847 250° West 337 388 13,000 -1,020 Level Houston Center
08:21PM 29.8547 -97.9639 244° Southwest 323 372 12,000 -1,200 Descending Houston Center
08:21PM 29.8472 -97.9814 244° Southwest 304 350 11,800 -1,380 Descending Houston Center
08:22PM 29.7964 -98.0317 221° Southwest 291 335 10,600 -1,560 Descending Houston Center
08:22PM 29.7817 -98.0428 213° Southwest 281 323 10,100 -1,860 Descending Houston Center
08:23PM 29.7275 -98.0778 209° Southwest 287 330 8,700 -1,860 Descending Houston Center
08:23PM 29.7222 -98.0814 211° Southwest 285 328 8,600 -1,500 Descending Houston Center
08:24PM 29.6606 -98.1261 212° Southwest 284 327 7,200 -1,500 Descending Houston Center
08:24PM 29.6556 -98.1306 218° Southwest 284 327 7,100 -1,080 Descending Houston Center
08:25PM 29.5844 -98.1803 211° Southwest 275 316 6,000 -840 Descending Houston Center
08:26PM 29.5253 -98.2211 211° Southwest 273 314 5,500 -540 Descending Houston Center
08:26PM 29.5253 -98.2219 270° West 274 315 5,500 -1,560 Level Houston Center
08:27PM 29.4653 -98.2714 216° Southwest 266 306 3,900 -1,260 Descending Houston Center
08:28PM 29.4444 -98.3439 252° West 220 253 3,000 -900 Descending Houston Center
08:28PM 29.4461 -98.3486 292° West 225 259 3,000 -600 Level Houston Center
08:29PM 29.4675 -98.3889 301° West 151 174 2,400 -600 Descending Houston Center
08:29PM 29.4700 -98.3919 313° West 164 189 2,400 -780 Level Houston Center
08:30PM 29.4936 -98.4217 312° West 146 168 1,700 -780 Descending Houston Center
08:30PM 29.5003 -98.4294 315° West 147 169 1,600 -540 Descending Houston Center
08:31PM 29.5178 -98.4550 308° West 122 140 1,100 -600 Descending Houston Center
08:31PM 29.5228 -98.4589 326° Northwest 127 146 1,000 -780 Descending Houston Center